Time;durP1;ratioP1;P1;durP2;ratioP2;P2;SDS_P1;SDS_P2;PMS_P1;PMS_P2;Temp;Humidity;BMP_temperature;BMP_pressure;BME280_temperature;BME280_humidity;BME280_pressure;Samples;Min_cycle;Max_cycle;Signal;HPM_P1;HPM_P2
2023/08/09 00:00:55;;;;;;;4.80;2.88;;;;;;;25.24;100.00;99767.00;31636978;28;20050;-75
2023/08/09 00:15:56;;;;;;;2.83;2.30;;;;;;;24.98;100.00;99802.97;31634345;28;20468;-74
2023/08/09 00:30:59;;;;;;;7.95;4.57;;;;;;;24.86;100.00;99801.56;31659402;28;20047;-76
2023/08/09 00:46:01;;;;;;;3.58;2.72;;;;;;;24.68;100.00;99834.34;31660469;28;20090;-75
2023/08/09 01:01:03;;;;;;;4.40;3.90;;;;;;;24.57;100.00;99873.31;31671373;28;20050;-76
2023/08/09 01:16:07;;;;;;;7.30;3.60;;;;;;;24.52;100.00;99807.53;31657253;28;20406;-74
2023/08/09 01:31:10;;;;;;;5.57;3.33;;;;;;;24.62;100.00;99869.72;31660734;28;20519;-75
2023/08/09 01:46:13;;;;;;;7.63;4.20;;;;;;;24.52;100.00;99904.66;31673187;28;20040;-76
2023/08/09 02:01:15;;;;;;;7.03;3.83;;;;;;;24.19;100.00;99911.22;31669865;28;20503;-75
2023/08/09 02:16:18;;;;;;;5.30;3.58;;;;;;;24.15;100.00;99939.22;31644733;28;20484;-75
2023/08/09 02:31:20;;;;;;;3.60;2.03;;;;;;;23.75;100.00;99954.63;31669022;28;20056;-75
2023/08/09 02:46:22;;;;;;;1.52;1.20;;;;;;;23.59;100.00;99968.59;31676296;28;20487;-75
2023/08/09 03:01:24;;;;;;;2.20;1.17;;;;;;;23.52;100.00;100003.09;31659677;28;20048;-76
2023/08/09 03:16:26;;;;;;;2.17;0.90;;;;;;;23.86;100.00;100039.72;31648746;28;20640;-75
2023/08/09 03:31:28;;;;;;;1.27;0.80;;;;;;;23.86;100.00;100030.69;31643117;28;20059;-75
2023/08/09 03:46:30;;;;;;;2.75;1.05;;;;;;;23.93;100.00;100032.88;31632112;28;20052;-74
2023/08/09 04:01:33;;;;;;;0.95;0.85;;;;;;;24.19;100.00;100051.91;31645964;28;20055;-75
2023/08/09 04:16:35;;;;;;;2.55;1.10;;;;;;;24.81;100.00;100089.81;31682017;28;20144;-76
2023/08/09 04:31:37;;;;;;;1.80;1.35;;;;;;;25.12;100.00;100115.59;31664193;28;20079;-75
2023/08/09 04:46:39;;;;;;;1.65;1.25;;;;;;;25.41;96.91;100136.28;31678283;28;20040;-75
2023/08/09 05:01:41;;;;;;;3.05;1.45;;;;;;;25.89;93.25;100166.13;31654514;28;20141;-75
2023/08/09 05:16:43;;;;;;;3.35;1.60;;;;;;;26.47;88.07;100172.00;31655063;28;20130;-75
2023/08/09 05:31:45;;;;;;;3.55;1.13;;;;;;;27.04;84.10;100183.09;31646647;28;20133;-75
2023/08/09 05:46:47;;;;;;;1.92;1.20;;;;;;;27.43;78.98;100199.91;31672955;28;20036;-75
2023/08/09 06:01:49;;;;;;;1.93;1.00;;;;;;;27.70;77.32;100209.09;31667250;28;20476;-76
2023/08/09 06:16:51;;;;;;;1.90;1.10;;;;;;;28.65;75.41;100242.75;31664809;28;20051;-74
2023/08/09 06:31:53;;;;;;;3.23;1.27;;;;;;;29.17;74.07;100253.78;31666652;28;20059;-75
2023/08/09 06:46:55;;;;;;;2.37;1.43;;;;;;;29.85;68.28;100258.47;31637302;28;20064;-75
2023/08/09 07:01:58;;;;;;;6.97;1.60;;;;;;;30.46;66.59;100258.84;31649834;28;20051;-76
2023/08/09 07:17:00;;;;;;;4.68;1.30;;;;;;;29.99;67.89;100271.09;31647397;28;20142;-77
2023/08/09 07:32:02;;;;;;;3.55;1.70;;;;;;;31.19;63.04;100289.00;31659412;28;20487;-76
2023/08/09 07:47:05;;;;;;;1.30;0.82;;;;;;;31.89;59.46;100270.16;31666208;28;20130;-74
2023/08/09 08:02:07;;;;;;;1.60;1.17;;;;;;;32.15;60.22;100284.50;31647551;28;20051;-74
2023/08/09 08:17:09;;;;;;;1.67;1.13;;;;;;;32.54;58.33;100279.56;31659710;28;20083;-75
2023/08/09 08:32:11;;;;;;;4.25;1.70;;;;;;;32.82;55.51;100293.34;31648708;28;20140;-75
2023/08/09 08:47:13;;;;;;;2.00;1.00;;;;;;;32.72;53.79;100298.03;31652335;28;20219;-73
2023/08/09 09:02:15;;;;;;;4.18;1.25;;;;;;;32.64;53.37;100282.50;31645936;28;20699;-74
2023/08/09 09:17:20;;;;;;;3.97;1.75;;;;;;;34.36;49.82;100282.38;31644801;27;20051;-75
2023/08/09 09:32:22;;;;;;;1.50;1.10;;;;;;;35.06;48.58;100289.38;31641978;28;20056;-74
2023/08/09 09:47:25;;;;;;;1.80;0.60;;;;;;;35.15;47.02;100291.50;31634160;28;20492;-75
2023/08/09 10:02:37;;;;;;;2.58;1.10;;;;;;;35.78;44.87;100296.38;31660959;28;20121;-75
2023/08/09 10:17:41;;;;;;;1.00;0.63;;;;;;;36.19;44.66;100286.00;31615349;28;20040;-77
2023/08/09 10:32:51;;;;;;;1.75;0.57;;;;;;;36.77;43.15;100283.94;31634475;28;20052;-73
2023/08/09 10:48:13;;;;;;;1.92;1.10;;;;;;;37.11;41.71;100291.25;31627251;28;20040;-74
2023/08/09 11:03:15;;;;;;;5.90;2.65;;;;;;;37.18;40.66;100278.28;31630984;28;20490;-73
2023/08/09 11:18:17;;;;;;;0.73;0.65;;;;;;;37.35;40.63;100280.91;31635749;28;20134;-75
2023/08/09 11:33:19;;;;;;;8.80;1.48;;;;;;;37.39;40.63;100275.53;31651713;28;20076;-73
2023/08/09 11:48:30;;;;;;;1.80;1.17;;;;;;;35.25;43.95;100257.69;31636416;28;20127;-73
2023/08/09 12:03:38;;;;;;;1.90;1.10;;;;;;;33.77;46.51;100252.16;31614730;28;20514;-73
2023/08/09 12:18:40;;;;;;;1.88;0.90;;;;;;;33.14;47.57;100260.88;31623376;28;20047;-73
2023/08/09 12:33:43;;;;;;;1.30;0.70;;;;;;;32.63;48.74;100264.91;31632389;28;20542;-75
2023/08/09 12:48:46;;;;;;;1.05;0.80;;;;;;;32.31;49.15;100267.66;31649255;28;20044;-75
2023/08/09 13:03:48;;;;;;;2.38;1.08;;;;;;;32.12;50.11;100274.44;31653373;28;20135;-75
2023/08/09 13:18:50;;;;;;;6.63;3.38;;;;;;;31.91;49.78;100285.13;31665739;28;20497;-75
2023/08/09 13:33:52;;;;;;;1.70;1.30;;;;;;;31.84;50.86;100285.88;31657543;28;20058;-74
2023/08/09 13:48:54;;;;;;;7.43;3.63;;;;;;;31.58;50.62;100305.88;31645772;28;20052;-74
2023/08/09 14:03:57;;;;;;;2.47;1.23;;;;;;;31.39;51.80;100307.00;31671419;28;20478;-76
2023/08/09 14:18:59;;;;;;;2.63;1.25;;;;;;;31.32;51.17;100313.34;31656336;28;20055;-77
2023/08/09 14:34:01;;;;;;;1.70;1.25;;;;;;;31.15;51.54;100325.09;31644260;28;20434;-75
2023/08/09 14:49:03;;;;;;;3.97;2.78;;;;;;;31.00;52.20;100318.63;31654357;28;20043;-73
2023/08/09 15:04:18;;;;;;;4.45;1.77;;;;;;;30.84;52.27;100315.06;31644044;28;20048;-75
2023/08/09 15:19:20;;;;;;;3.08;1.20;;;;;;;30.63;52.72;100317.97;31655472;28;20082;-74
2023/08/09 15:34:23;;;;;;;5.22;1.80;;;;;;;30.41;52.85;100326.97;31657932;28;20059;-75
2023/08/09 15:49:24;;;;;;;;;;;;;;;30.46;53.11;100329.63;31649788;28;20274;-75
2023/08/09 16:04:26;;;;;;;3.92;2.00;;;;;;;30.38;53.65;100330.88;31646428;28;20435;-75
2023/08/09 16:19:28;;;;;;;;;;;;;;;30.15;54.91;100331.47;31677606;28;20050;-74
2023/08/09 16:34:30;;;;;;;2.95;2.10;;;;;;;29.99;55.13;100345.91;31663713;28;19974;-76
2023/08/09 16:49:32;;;;;;;3.67;1.98;;;;;;;29.63;56.06;100354.16;31677160;28;20078;-76
2023/08/09 17:04:36;;;;;;;2.93;1.60;;;;;;;29.49;56.45;100356.25;31652492;28;20060;-77
2023/08/09 17:19:38;;;;;;;4.10;2.03;;;;;;;29.23;57.47;100368.25;31656867;28;20304;-74
2023/08/09 17:34:40;;;;;;;5.23;3.20;;;;;;;29.08;58.76;100382.03;31667418;28;20557;-77
2023/08/09 17:49:42;;;;;;;5.40;2.80;;;;;;;28.94;59.83;100383.38;31653847;28;20126;-76
2023/08/09 18:04:44;;;;;;;5.23;2.93;;;;;;;28.65;60.66;100388.72;31663859;28;20067;-74
2023/08/09 18:19:46;;;;;;;8.97;3.73;;;;;;;28.30;62.75;100383.56;31669330;28;20044;-76
2023/08/09 18:34:48;;;;;;;6.30;3.20;;;;;;;28.26;63.90;100385.94;31653616;28;20051;-75
2023/08/09 18:49:51;;;;;;;6.90;3.75;;;;;;;27.80;66.38;100385.16;31639167;28;20068;-78
2023/08/09 19:04:53;;;;;;;5.83;2.90;;;;;;;27.54;69.38;100382.22;31647133;28;20122;-76
2023/08/09 19:19:55;;;;;;;6.57;4.30;;;;;;;27.51;70.25;100372.88;31642161;28;20094;-76
2023/08/09 19:34:57;;;;;;;8.73;4.07;;;;;;;27.12;74.34;100367.88;31664891;28;20086;-75
2023/08/09 19:49:59;;;;;;;5.18;3.53;;;;;;;27.07;76.16;100372.22;31689854;28;20039;-74
2023/08/09 20:05:03;;;;;;;5.37;3.23;;;;;;;26.84;78.78;100374.53;31683315;28;20083;-74
2023/08/09 20:20:06;;;;;;;5.47;3.20;;;;;;;26.63;80.31;100370.72;31684077;28;20079;-75
2023/08/09 20:35:09;;;;;;;4.18;2.97;;;;;;;26.39;83.03;100360.34;31676171;28;20066;-73
2023/08/09 20:50:11;;;;;;;;;;;;;;;26.25;88.51;100366.28;31661293;28;20044;-74
2023/08/09 21:05:13;;;;;;;4.13;2.47;;;;;;;26.35;86.71;100370.25;31649234;28;19920;-74
2023/08/09 21:20:15;;;;;;;7.95;3.10;;;;;;;26.24;88.12;100364.75;31657370;28;20475;-74
2023/08/09 21:35:17;;;;;;;3.92;2.95;;;;;;;25.98;91.09;100352.13;31654241;28;20066;-74
2023/08/09 21:50:19;;;;;;;7.05;2.88;;;;;;;25.85;92.64;100346.41;31645782;28;20101;-73
2023/08/09 22:05:21;;;;;;;32.00;20.30;;;;;;;25.73;94.06;100333.88;31649177;28;20803;-74
2023/08/09 22:20:24;;;;;;;2.92;2.30;;;;;;;25.49;96.82;100321.41;31645269;28;20477;-73
2023/08/09 22:35:26;;;;;;;4.17;2.10;;;;;;;25.30;98.99;100330.84;31647249;28;20151;-74
2023/08/09 22:50:28;;;;;;;3.63;1.90;;;;;;;25.35;100.00;100333.59;31634407;28;20063;-74
2023/08/09 23:05:31;;;;;;;3.33;2.03;;;;;;;25.28;100.00;100328.59;31640995;28;20563;-74
2023/08/09 23:20:33;;;;;;;3.80;2.40;;;;;;;25.33;100.00;100330.59;31653038;28;20047;-73
2023/08/09 23:35:35;;;;;;;4.57;2.40;;;;;;;25.25;100.00;100318.53;31645350;28;20083;-74
2023/08/09 23:50:37;;;;;;;3.67;2.13;;;;;;;25.15;100.00;100314.53;31642986;28;20419;-74
